createdAt,value
2023-05-17T00:00:56.452Z,21.80
2023-05-17T00:03:30.051Z,26.40
2023-05-17T00:06:03.853Z,22.40
2023-05-17T00:08:37.749Z,26.10
2023-05-17T00:11:11.205Z,21.60
2023-05-17T00:13:44.871Z,24.70
2023-05-17T00:16:18.364Z,24.10
2023-05-17T00:18:51.894Z,29.00
2023-05-17T00:21:26.360Z,28.00
2023-05-17T00:23:59.737Z,29.10
2023-05-17T00:26:34.480Z,27.30
2023-05-17T00:29:07.996Z,26.70
2023-05-17T00:31:42.915Z,26.50
2023-05-17T00:34:16.529Z,25.00
2023-05-17T00:36:51.569Z,25.10
2023-05-17T00:39:25.164Z,25.20
2023-05-17T00:41:58.865Z,28.50
2023-05-17T00:44:32.677Z,25.70
2023-05-17T00:47:06.291Z,27.60
2023-05-17T00:49:41.001Z,24.00
2023-05-17T00:52:14.656Z,25.70
2023-05-17T00:54:48.883Z,22.20
2023-05-17T00:57:22.903Z,25.80
2023-05-17T00:59:57.640Z,25.80
2023-05-17T01:02:31.924Z,26.40
2023-05-17T01:05:06.408Z,26.50
2023-05-17T01:07:41.936Z,27.40
2023-05-17T01:10:15.935Z,24.40
2023-05-17T01:13:05.361Z,26.60
2023-05-17T01:15:45.303Z,28.80
2023-05-17T01:18:27.858Z,32.60
2023-05-17T01:21:03.192Z,27.70
2023-05-17T01:23:46.633Z,29.40
2023-05-17T01:26:22.761Z,29.00
2023-05-17T01:28:59.257Z,26.60
2023-05-17T01:31:33.178Z,29.90
2023-05-17T01:34:10.373Z,28.60
2023-05-17T01:36:43.956Z,25.30
2023-05-17T01:39:17.582Z,26.80
2023-05-17T01:41:56.950Z,27.60
2023-05-17T01:44:37.733Z,25.10
2023-05-17T01:47:17.802Z,26.40
2023-05-17T01:49:55.681Z,24.90
2023-05-17T01:52:37.376Z,25.50
2023-05-17T01:55:20.118Z,27.40
2023-05-17T01:57:57.925Z,22.50
2023-05-17T02:00:33.036Z,24.70
2023-05-17T02:03:06.535Z,24.50
2023-05-17T02:05:40.209Z,24.50
2023-05-17T02:08:13.991Z,24.10
2023-05-17T02:10:47.663Z,26.20
2023-05-17T02:13:21.614Z,26.70
2023-05-17T02:15:55.008Z,24.50
2023-05-17T02:18:28.516Z,24.10
2023-05-17T02:21:02.882Z,28.20
2023-05-17T02:23:36.285Z,23.70
2023-05-17T02:26:09.876Z,26.10
2023-05-17T02:28:43.975Z,22.00
2023-05-17T02:31:17.586Z,21.70
2023-05-17T02:33:51.260Z,23.00
2023-05-17T02:36:25.085Z,21.00
2023-05-17T02:38:58.802Z,24.10
2023-05-17T02:41:32.400Z,24.70
2023-05-17T02:44:06.126Z,21.40
2023-05-17T02:46:40.136Z,21.90
2023-05-17T02:49:13.744Z,22.40
2023-05-17T02:51:47.365Z,23.00
2023-05-17T02:54:21.445Z,18.40
2023-05-17T02:56:55.023Z,21.40
2023-05-17T02:59:28.884Z,23.00
2023-05-17T03:02:02.477Z,19.10
2023-05-17T03:04:37.218Z,19.90
2023-05-17T03:07:11.928Z,21.50
2023-05-17T03:09:46.155Z,19.80
2023-05-17T03:12:19.964Z,15.90
2023-05-17T03:14:54.957Z,17.50
2023-05-17T03:17:29.459Z,18.80
2023-05-17T03:20:07.364Z,16.60
2023-05-17T03:22:41.803Z,17.00
2023-05-17T03:25:15.299Z,17.60
2023-05-17T03:27:49.121Z,16.00
2023-05-17T03:30:23.021Z,17.10
2023-05-17T03:32:57.133Z,14.60
2023-05-17T03:35:31.309Z,17.50
2023-05-17T03:38:05.359Z,17.70
2023-05-17T03:40:43.076Z,16.10
2023-05-17T03:43:16.804Z,17.20
2023-05-17T03:45:50.806Z,16.80
2023-05-17T03:48:24.845Z,17.40
2023-05-17T03:50:59.983Z,16.40
2023-05-17T03:53:34.002Z,19.90
2023-05-17T03:56:08.775Z,18.80
2023-05-17T03:58:43.872Z,17.30
2023-05-17T04:01:17.837Z,14.80
2023-05-17T04:03:51.481Z,13.10
2023-05-17T04:06:27.268Z,15.80
2023-05-17T04:09:01.016Z,14.90
2023-05-17T04:11:34.850Z,16.10
2023-05-17T04:14:09.253Z,16.20
2023-05-17T04:16:43.436Z,11.50
2023-05-17T04:19:17.695Z,15.50
2023-05-17T04:21:52.366Z,12.10
2023-05-17T04:24:26.769Z,12.00
2023-05-17T04:27:04.655Z,12.10
2023-05-17T04:29:38.247Z,13.40
2023-05-17T04:32:12.689Z,13.20
2023-05-17T04:34:46.849Z,12.70
2023-05-17T04:37:21.070Z,12.80
2023-05-17T04:39:56.683Z,12.40
2023-05-17T04:42:30.395Z,14.70
2023-05-17T04:45:05.561Z,10.60
2023-05-17T04:47:39.581Z,11.90
2023-05-17T04:50:14.216Z,11.30
2023-05-17T04:52:48.517Z,11.30
2023-05-17T04:55:22.080Z,12.20
2023-05-17T04:57:55.492Z,11.10
2023-05-17T05:00:31.535Z,9.30
2023-05-17T05:03:09.582Z,9.30
2023-05-17T05:05:43.456Z,8.40
2023-05-17T05:08:17.597Z,11.90
2023-05-17T05:10:51.834Z,13.10
2023-05-17T05:13:25.860Z,9.10
2023-05-17T05:16:00.066Z,10.60
2023-05-17T05:18:33.648Z,14.30
2023-05-17T05:21:07.512Z,10.30
2023-05-17T05:23:41.401Z,10.90
2023-05-17T05:26:15.089Z,10.10
2023-05-17T05:28:48.619Z,7.50
2023-05-17T05:31:22.410Z,7.60
2023-05-17T05:33:57.714Z,8.30
2023-05-17T05:36:31.405Z,9.00
2023-05-17T05:39:07.288Z,7.70
2023-05-17T05:41:42.752Z,6.40
2023-05-17T05:44:16.649Z,7.10
2023-05-17T05:46:50.156Z,6.80
2023-05-17T05:49:24.192Z,7.60
2023-05-17T05:51:57.998Z,9.90
2023-05-17T05:54:32.293Z,8.20
2023-05-17T05:57:07.028Z,7.40
2023-05-17T05:59:40.449Z,7.90
2023-05-17T06:02:14.530Z,7.40
2023-05-17T06:04:50.258Z,6.30
2023-05-17T06:07:23.772Z,8.20
2023-05-17T06:09:57.143Z,7.30
2023-05-17T06:12:30.595Z,7.00
2023-05-17T06:15:04.753Z,11.40
2023-05-17T06:17:38.328Z,8.60
2023-05-17T06:20:13.316Z,9.90
2023-05-17T06:22:49.772Z,7.60
2023-05-17T06:25:23.265Z,7.80
2023-05-17T06:27:56.929Z,8.40
2023-05-17T06:30:30.875Z,11.80
2023-05-17T06:33:05.341Z,16.30
2023-05-17T06:35:54.793Z,6.80
2023-05-17T06:38:29.604Z,6.70
2023-05-17T06:41:02.996Z,6.20
2023-05-17T06:43:37.742Z,8.10
2023-05-17T06:46:11.507Z,7.40
2023-05-17T06:48:46.444Z,5.40
2023-05-17T06:51:21.683Z,6.90
2023-05-17T06:53:55.275Z,4.30
2023-05-17T06:56:28.762Z,8.60
2023-05-17T06:59:02.798Z,5.90
2023-05-17T07:01:36.445Z,6.10
2023-05-17T07:04:10.148Z,7.60
2023-05-17T07:06:43.522Z,6.70
2023-05-17T07:09:17.677Z,9.00
2023-05-17T07:11:51.208Z,7.70
2023-05-17T07:14:24.781Z,7.40
2023-05-17T07:16:58.151Z,8.10
2023-05-17T07:19:32.292Z,6.90
2023-05-17T07:22:06.060Z,8.60
2023-05-17T07:24:39.555Z,8.60
2023-05-17T07:27:13.357Z,8.30
2023-05-17T07:29:47.594Z,8.80
2023-05-17T07:32:21.664Z,21.70
2023-05-17T07:34:55.774Z,14.40
2023-05-17T07:37:29.473Z,15.30
2023-05-17T07:40:07.789Z,7.40
2023-05-17T07:42:41.690Z,6.00
2023-05-17T07:45:15.423Z,5.10
2023-05-17T07:47:49.361Z,5.90
2023-05-17T07:50:22.955Z,19.90
2023-05-17T07:52:57.191Z,8.20
2023-05-17T07:55:30.936Z,6.80
2023-05-17T07:58:04.770Z,7.10
2023-05-17T08:00:38.314Z,8.40
2023-05-17T08:03:11.934Z,7.30
2023-05-17T08:05:46.172Z,9.50
2023-05-17T08:08:21.401Z,4.20
2023-05-17T08:10:55.116Z,7.70
2023-05-17T08:13:28.549Z,5.40
2023-05-17T08:16:12.786Z,6.90
2023-05-17T08:18:48.469Z,7.40
2023-05-17T08:21:23.086Z,6.40
2023-05-17T08:23:56.621Z,8.30
2023-05-17T08:26:30.344Z,7.70
2023-05-17T08:29:04.954Z,8.00
2023-05-17T08:31:38.693Z,7.90
2023-05-17T08:34:12.007Z,7.50
2023-05-17T08:36:46.079Z,9.30
2023-05-17T08:39:21.579Z,8.60
2023-05-17T08:41:59.904Z,7.20
2023-05-17T08:44:33.684Z,9.00
2023-05-17T08:47:08.083Z,6.80
2023-05-17T08:49:42.391Z,5.00
2023-05-17T08:52:17.943Z,8.20
2023-05-17T08:54:53.027Z,19.00
2023-05-17T08:57:30.051Z,21.70
2023-05-17T09:00:13.004Z,6.60
2023-05-17T09:02:51.580Z,9.60
2023-05-17T09:05:25.968Z,13.10
2023-05-17T09:08:01.137Z,8.60
2023-05-17T09:10:34.462Z,7.00
2023-05-17T09:13:08.261Z,8.80
2023-05-17T09:15:43.576Z,8.60
2023-05-17T09:18:19.530Z,7.10
2023-05-17T09:20:56.122Z,8.30
2023-05-17T09:23:32.638Z,10.20
2023-05-17T09:26:10.079Z,8.10
2023-05-17T09:28:44.863Z,6.00
2023-05-17T09:31:19.329Z,8.20
2023-05-17T09:33:55.255Z,9.10
2023-05-17T09:36:29.182Z,7.00
2023-05-17T09:39:06.186Z,11.30
2023-05-17T09:41:47.330Z,9.50
2023-05-17T09:44:23.505Z,8.90
2023-05-17T09:46:59.446Z,7.90
2023-05-17T09:49:33.001Z,6.30
2023-05-17T09:52:11.408Z,10.50
2023-05-17T09:54:45.455Z,6.70
2023-05-17T09:57:18.793Z,6.30
2023-05-17T09:59:53.406Z,6.80
2023-05-17T10:02:33.129Z,7.20
2023-05-17T10:05:10.921Z,6.90
2023-05-17T10:07:45.049Z,7.60
2023-05-17T10:10:19.706Z,28.20
2023-05-17T10:12:54.622Z,11.40
2023-05-17T10:15:29.343Z,9.30
2023-05-17T10:18:05.028Z,8.50
2023-05-17T10:20:39.739Z,8.80
2023-05-17T10:23:14.945Z,8.10
2023-05-17T10:25:49.020Z,7.60
2023-05-17T10:28:24.272Z,7.20
2023-05-17T10:30:59.502Z,6.50
2023-05-17T10:33:35.529Z,9.30
2023-05-17T10:36:10.363Z,8.60
2023-05-17T10:38:44.494Z,9.10
2023-05-17T10:41:22.053Z,8.70
2023-05-17T10:43:57.141Z,9.90
2023-05-17T10:46:32.849Z,7.60
2023-05-17T10:49:06.740Z,6.10
2023-05-17T10:51:41.191Z,8.00
2023-05-17T10:54:18.776Z,6.60
2023-05-17T10:56:54.623Z,7.60
2023-05-17T10:59:30.090Z,14.40
2023-05-17T11:02:06.120Z,11.10
2023-05-17T11:04:41.383Z,6.50
2023-05-17T11:07:33.030Z,8.60
2023-05-17T11:10:14.922Z,5.50
2023-05-17T11:12:54.426Z,5.50
2023-05-17T11:15:28.605Z,6.30
2023-05-17T11:18:02.351Z,6.70
2023-05-17T11:20:38.043Z,6.30
2023-05-17T11:23:20.113Z,6.40
2023-05-17T11:25:55.043Z,8.20
2023-05-17T11:28:30.204Z,7.60
2023-05-17T11:31:05.669Z,10.40
2023-05-17T11:33:47.152Z,10.90
2023-05-17T11:36:25.639Z,7.70
2023-05-17T11:39:15.801Z,7.10
2023-05-17T11:41:54.257Z,8.50
2023-05-17T11:44:30.839Z,5.90
2023-05-17T11:49:41.211Z,26.50
2023-05-17T11:52:18.087Z,7.10
2023-05-17T11:54:53.135Z,7.30
2023-05-17T11:57:31.696Z,5.30
2023-05-17T12:00:07.150Z,5.60
2023-05-17T12:02:46.228Z,9.80
2023-05-17T12:05:24.813Z,5.30
2023-05-17T12:07:59.574Z,7.30
2023-05-17T12:10:34.742Z,5.50
2023-05-17T12:13:11.233Z,7.80
2023-05-17T12:15:50.168Z,6.50
2023-05-17T12:18:24.350Z,5.70
2023-05-17T12:20:59.623Z,5.50
2023-05-17T12:23:35.323Z,7.30
2023-05-17T12:26:13.087Z,6.30
2023-05-17T12:28:48.062Z,6.80
2023-05-17T12:31:26.917Z,5.90
2023-05-17T12:34:02.840Z,5.70
2023-05-17T12:36:37.641Z,5.80
2023-05-17T12:39:11.702Z,5.80
2023-05-17T12:41:46.539Z,7.80
2023-05-17T12:44:21.156Z,4.60
2023-05-17T12:46:56.573Z,5.50
2023-05-17T12:49:30.296Z,4.00
2023-05-17T12:52:08.266Z,4.90
2023-05-17T12:54:43.315Z,9.10
2023-05-17T12:57:20.468Z,20.40
2023-05-17T12:59:56.153Z,6.40
2023-05-17T13:02:30.220Z,4.50
2023-05-17T13:05:18.961Z,12.60
2023-05-17T13:07:53.373Z,7.70
2023-05-17T13:10:29.936Z,4.40
2023-05-17T13:13:05.843Z,5.10
2023-05-17T13:15:39.185Z,4.60
2023-05-17T13:18:18.574Z,4.10
2023-05-17T13:20:52.365Z,5.40
2023-05-17T13:23:26.089Z,4.90
2023-05-17T13:26:00.171Z,4.50
2023-05-17T13:28:33.846Z,19.30
2023-05-17T13:31:07.683Z,6.30
2023-05-17T13:33:41.886Z,5.70
2023-05-17T13:36:15.595Z,4.70
2023-05-17T13:38:49.368Z,4.10
2023-05-17T13:41:23.237Z,19.70
2023-05-17T13:43:57.640Z,11.40
2023-05-17T13:46:32.373Z,10.20
2023-05-17T13:49:08.213Z,7.00
2023-05-17T13:51:43.021Z,5.90
2023-05-17T13:54:16.567Z,5.50
2023-05-17T13:56:50.023Z,7.10
2023-05-17T13:59:23.361Z,4.50
2023-05-17T14:01:58.101Z,4.70
2023-05-17T14:04:31.714Z,6.70
2023-05-17T14:07:05.892Z,4.60
2023-05-17T14:09:40.091Z,5.00
2023-05-17T14:12:13.793Z,7.00
2023-05-17T14:14:47.412Z,5.50
2023-05-17T14:17:21.010Z,7.50
2023-05-17T14:19:55.362Z,4.50
2023-05-17T14:22:29.031Z,8.00
2023-05-17T14:25:02.533Z,5.10
2023-05-17T14:27:36.015Z,5.50
2023-05-17T14:30:13.541Z,5.50
2023-05-17T14:32:47.350Z,6.80
2023-05-17T14:35:21.173Z,5.90
2023-05-17T14:37:54.725Z,6.30
2023-05-17T14:40:28.398Z,6.10
2023-05-17T14:43:02.902Z,5.90
2023-05-17T14:45:36.566Z,4.30
2023-05-17T14:48:11.135Z,6.20
2023-05-17T14:50:44.683Z,5.50
2023-05-17T14:53:18.462Z,4.50
2023-05-17T14:55:52.139Z,6.40
2023-05-17T14:58:27.146Z,3.90
2023-05-17T15:01:05.672Z,5.60
2023-05-17T15:03:41.606Z,5.20
2023-05-17T15:06:15.696Z,5.20
2023-05-17T15:08:49.538Z,6.60
2023-05-17T15:11:24.180Z,5.60
2023-05-17T15:13:58.000Z,5.70
2023-05-17T15:16:32.100Z,6.60
2023-05-17T15:19:05.989Z,5.00
2023-05-17T15:21:39.787Z,5.50
2023-05-17T15:24:14.437Z,6.40
2023-05-17T15:26:49.509Z,6.00
2023-05-17T15:29:23.683Z,5.40
2023-05-17T15:31:59.453Z,5.70
2023-05-17T15:34:33.071Z,5.90
2023-05-17T15:37:06.888Z,3.70
2023-05-17T15:39:41.418Z,5.70
2023-05-17T15:42:15.074Z,5.10
2023-05-17T15:44:49.260Z,5.80
2023-05-17T15:47:31.580Z,6.00
2023-05-17T15:50:15.623Z,5.80
2023-05-17T15:52:52.129Z,4.70
2023-05-17T15:55:26.726Z,5.50
2023-05-17T15:58:04.016Z,6.50
2023-05-17T16:00:38.294Z,5.90
2023-05-17T16:03:11.785Z,6.80
2023-05-17T16:05:46.216Z,6.80
2023-05-17T16:08:24.843Z,5.60
2023-05-17T16:11:02.056Z,6.70
2023-05-17T16:13:36.326Z,5.80
2023-05-17T16:16:10.990Z,6.80
2023-05-17T16:18:44.739Z,6.90
2023-05-17T16:21:18.592Z,7.10
2023-05-17T16:23:52.856Z,5.60
2023-05-17T16:26:26.869Z,6.80
2023-05-17T16:29:01.117Z,6.00
2023-05-17T16:31:34.754Z,4.20
2023-05-17T16:34:08.542Z,8.30
2023-05-17T16:36:44.527Z,8.40
2023-05-17T16:39:18.660Z,6.70
2023-05-17T16:41:53.042Z,5.40
2023-05-17T16:44:26.851Z,6.20
2023-05-17T16:47:00.536Z,8.10
2023-05-17T16:49:34.565Z,4.20
2023-05-17T16:52:08.804Z,4.30
2023-05-17T16:54:42.425Z,5.40
2023-05-17T16:57:17.555Z,6.40
2023-05-17T16:59:51.065Z,4.40
2023-05-17T17:02:25.633Z,6.60
2023-05-17T17:05:00.148Z,5.10
2023-05-17T17:07:33.692Z,6.00
2023-05-17T17:10:08.484Z,5.90
2023-05-17T17:12:42.701Z,7.30
2023-05-17T17:15:16.576Z,6.00
2023-05-17T17:17:50.304Z,6.40
2023-05-17T17:20:28.781Z,8.70
2023-05-17T17:23:04.689Z,7.70
2023-05-17T17:25:40.309Z,7.20
2023-05-17T17:28:14.170Z,5.30
2023-05-17T17:30:48.158Z,5.60
2023-05-17T17:33:22.635Z,8.20
2023-05-17T17:35:58.744Z,6.10
2023-05-17T17:38:33.901Z,6.00
2023-05-17T17:41:08.009Z,7.50
2023-05-17T17:43:43.039Z,5.80
2023-05-17T17:46:17.846Z,6.70
2023-05-17T17:48:52.310Z,6.60
2023-05-17T17:51:26.564Z,6.90
2023-05-17T17:54:01.285Z,8.00
2023-05-17T17:56:35.067Z,12.60
2023-05-17T17:59:10.765Z,11.40
2023-05-17T18:01:46.042Z,9.00
2023-05-17T18:04:19.834Z,7.10
2023-05-17T18:06:55.405Z,10.20
2023-05-17T18:09:29.861Z,7.00
2023-05-17T18:12:04.182Z,9.20
2023-05-17T18:14:37.525Z,10.80
2023-05-17T18:17:12.025Z,7.60
2023-05-17T18:19:47.496Z,9.30
2023-05-17T18:24:54.408Z,7.10
2023-05-17T18:27:28.516Z,7.00
2023-05-17T18:30:02.292Z,7.20
2023-05-17T18:32:36.000Z,6.30
2023-05-17T18:35:12.064Z,6.60
2023-05-17T18:37:46.222Z,9.20
2023-05-17T18:40:21.290Z,8.40
2023-05-17T18:42:57.858Z,7.10
2023-05-17T18:45:37.794Z,8.30
2023-05-17T18:48:13.365Z,7.30
2023-05-17T18:50:48.094Z,9.30
2023-05-17T18:53:24.290Z,7.10
2023-05-17T18:56:05.080Z,6.30
2023-05-17T18:58:40.049Z,6.70
2023-05-17T19:01:14.501Z,7.40
2023-05-17T19:03:48.388Z,6.00
2023-05-17T19:06:22.647Z,7.90
2023-05-17T19:08:58.433Z,9.40
2023-05-17T19:11:32.743Z,9.80
2023-05-17T19:14:07.125Z,8.10
2023-05-17T19:16:40.495Z,7.90
2023-05-17T19:19:15.359Z,6.70
2023-05-17T19:21:49.172Z,7.40
2023-05-17T19:24:22.965Z,7.30
2023-05-17T19:26:56.410Z,8.00
2023-05-17T19:29:33.051Z,8.80
2023-05-17T19:32:10.332Z,6.10
2023-05-17T19:34:44.336Z,7.10
2023-05-17T19:37:17.638Z,11.60
2023-05-17T19:39:51.454Z,7.00
2023-05-17T19:42:25.663Z,7.90
2023-05-17T19:44:59.450Z,10.00
2023-05-17T19:47:37.286Z,8.90
2023-05-17T19:50:14.011Z,8.40
2023-05-17T19:52:47.990Z,10.30
2023-05-17T19:55:22.472Z,8.60
2023-05-17T19:57:57.162Z,8.30
2023-05-17T20:00:33.916Z,12.60
2023-05-17T20:03:08.238Z,8.00
2023-05-17T20:05:42.298Z,10.70
2023-05-17T20:08:17.658Z,9.80
2023-05-17T20:10:52.110Z,7.80
2023-05-17T20:13:29.092Z,9.70
2023-05-17T20:18:35.022Z,8.80
2023-05-17T20:21:09.310Z,9.70
2023-05-17T20:23:42.971Z,10.10
2023-05-17T20:26:19.252Z,12.00
2023-05-17T20:28:52.982Z,8.50
2023-05-17T20:31:29.505Z,10.60
2023-05-17T20:34:03.886Z,12.20
2023-05-17T20:36:37.608Z,9.80
2023-05-17T20:39:11.479Z,9.90
2023-05-17T20:41:47.933Z,10.80
2023-05-17T20:44:22.270Z,10.00
2023-05-17T20:46:55.977Z,10.40
2023-05-17T20:49:29.481Z,11.50
2023-05-17T20:52:06.756Z,8.50
2023-05-17T20:54:40.644Z,11.30
2023-05-17T20:57:14.330Z,10.70
2023-05-17T20:59:47.843Z,12.30
2023-05-17T21:02:25.124Z,10.90
2023-05-17T21:04:58.876Z,10.50
2023-05-17T21:07:32.427Z,8.80
2023-05-17T21:10:06.556Z,9.00
2023-05-17T21:12:40.068Z,8.50
2023-05-17T21:15:17.378Z,8.40
2023-05-17T21:17:51.401Z,9.60
2023-05-17T21:20:25.069Z,10.10
2023-05-17T21:22:58.644Z,12.70
2023-05-17T21:25:32.551Z,12.10
2023-05-17T21:28:06.887Z,11.30
2023-05-17T21:30:40.568Z,12.10
2023-05-17T21:33:14.291Z,11.50
2023-05-17T21:35:48.014Z,12.20
2023-05-17T21:38:21.604Z,9.80
2023-05-17T21:40:55.878Z,10.50
2023-05-17T21:43:29.403Z,9.50
2023-05-17T21:46:02.946Z,12.00
2023-05-17T21:48:36.513Z,10.10
2023-05-17T21:51:10.319Z,12.40
2023-05-17T21:53:43.783Z,8.60
2023-05-17T21:56:17.165Z,10.70
2023-05-17T21:58:52.322Z,10.20
2023-05-17T22:01:26.684Z,10.00
2023-05-17T22:04:00.641Z,10.80
2023-05-17T22:06:34.760Z,9.60
2023-05-17T22:09:09.809Z,11.80
2023-05-17T22:11:43.654Z,10.70
2023-05-17T22:14:17.509Z,11.70
2023-05-17T22:16:51.256Z,11.40
2023-05-17T22:19:24.982Z,11.10
2023-05-17T22:21:58.750Z,10.80
2023-05-17T22:24:32.252Z,10.10
2023-05-17T22:27:06.154Z,11.00
2023-05-17T22:29:42.125Z,11.10
2023-05-17T22:32:15.839Z,9.40
2023-05-17T22:34:49.458Z,10.20
2023-05-17T22:37:24.151Z,10.10
2023-05-17T22:39:57.717Z,12.20
2023-05-17T22:42:31.410Z,8.80
2023-05-17T22:45:04.936Z,10.10
2023-05-17T22:47:39.412Z,9.30
2023-05-17T22:50:15.983Z,7.50
2023-05-17T22:52:51.017Z,8.70
2023-05-17T22:55:25.321Z,10.40
2023-05-17T22:57:59.240Z,9.80
2023-05-17T23:00:32.596Z,12.30
2023-05-17T23:03:06.283Z,8.80
2023-05-17T23:05:40.730Z,10.50
2023-05-17T23:08:15.801Z,8.90
2023-05-17T23:10:50.332Z,9.70
2023-05-17T23:13:23.980Z,7.70
2023-05-17T23:15:57.663Z,9.40
2023-05-17T23:18:31.452Z,10.00
2023-05-17T23:21:06.061Z,8.10
2023-05-17T23:23:41.085Z,8.80
2023-05-17T23:26:14.971Z,9.00
2023-05-17T23:28:50.692Z,11.60
2023-05-17T23:31:26.050Z,8.40
2023-05-17T23:33:59.568Z,7.80
2023-05-17T23:36:33.024Z,7.60
2023-05-17T23:39:06.730Z,9.60
2023-05-17T23:41:40.492Z,8.90
2023-05-17T23:44:14.292Z,6.00
2023-05-17T23:46:47.838Z,9.10
2023-05-17T23:49:23.170Z,9.10
2023-05-17T23:51:56.794Z,9.00
2023-05-17T23:54:30.499Z,8.90
2023-05-17T23:57:04.001Z,7.60
2023-05-17T23:59:38.611Z,13.00
